Time;durP1;ratioP1;P1;durP2;ratioP2;P2;SDS_P1;SDS_P2;PMS_P1;PMS_P2;Temp;Humidity;BMP_temperature;BMP_pressure;BME280_temperature;BME280_humidity;BME280_pressure;Samples;Min_cycle;Max_cycle;Signal;HPM_P1;HPM_P2
2023/12/25 00:00:18;;;;;;;;;;;12.10;99.90;;;;;;5084047;28;19919;-78
2023/12/25 00:03:04;;;;;;;;;;;12.10;99.90;;;;;;5098669;28;19916;-78
2023/12/25 00:05:50;;;;;;;;;;;12.10;99.90;;;;;;5101741;28;19916;-77
2023/12/25 00:08:36;;;;;;;;;;;;;;;;;;5103902;28;19966;-77
2023/12/25 00:11:22;;;;;;;;;;;12.10;99.90;;;;;;5118276;28;19924;-78
2023/12/25 00:14:10;;;;;;;;;;;12.20;99.90;;;;;;5104120;28;19926;-79
2023/12/25 00:16:56;;;;;;;;;;;12.10;99.90;;;;;;5103015;28;19919;-79
2023/12/25 00:19:42;;;;;;;;;;;12.10;99.90;;;;;;5101182;28;20011;-78
2023/12/25 00:22:28;;;;;;;;;;;12.20;99.90;;;;;;5117660;28;19923;-78
2023/12/25 00:25:14;;;;;;;;;;;12.20;99.90;;;;;;5120373;28;20285;-79
2023/12/25 00:28:00;;;;;;;;;;;12.10;99.90;;;;;;5106386;28;19927;-78
2023/12/25 00:30:46;;;;;;;;;;;12.10;99.90;;;;;;5113324;28;19922;-76
2023/12/25 00:33:32;;;;;;;;;;;12.10;99.90;;;;;;5104009;28;20004;-77
2023/12/25 00:36:17;;;;;;;;;;;12.10;99.90;;;;;;5102748;28;19920;-79
2023/12/25 00:39:03;;;;;;;;;;;12.10;99.90;;;;;;5097201;28;19970;-79
2023/12/25 00:41:49;;;;;;;;;;;11.90;99.90;;;;;;5104504;28;19911;-78
2023/12/25 00:44:35;;;;;;;;;;;11.90;99.90;;;;;;5096945;28;20409;-77
2023/12/25 00:47:21;;;;;;;;;;;11.90;99.90;;;;;;5117680;28;20006;-77
2023/12/25 00:50:07;;;;;;;;;;;11.90;99.90;;;;;;5116650;28;19916;-78
2023/12/25 00:52:53;;;;;;;;;;;11.90;99.90;;;;;;5097917;28;19916;-76
2023/12/25 00:55:39;;;;;;;;;;;11.90;99.90;;;;;;5099355;28;19913;-77
2023/12/25 00:58:25;;;;;;;;;;;11.90;99.90;;;;;;5111610;28;19926;-80
2023/12/25 01:01:11;;;;;;;;;;;11.90;99.90;;;;;;5113451;28;19951;-79
2023/12/25 01:03:57;;;;;;;;;;;11.90;99.90;;;;;;5096317;28;19916;-80
2023/12/25 01:06:43;;;;;;;;;;;11.90;99.90;;;;;;5102005;28;19912;-79
2023/12/25 01:09:31;;;;;;;;;;;11.90;99.90;;;;;;5082281;28;20236;-77
2023/12/25 01:12:17;;;;;;;;;;;12.00;99.90;;;;;;5113701;28;19915;-77
2023/12/25 01:15:03;;;;;;;;;;;12.00;99.90;;;;;;5098247;28;20325;-77
2023/12/25 01:17:48;;;;;;;;;;;12.00;99.90;;;;;;5116055;28;19916;-77
2023/12/25 01:20:34;;;;;;;;;;;12.00;99.90;;;;;;5101841;28;19912;-77
2023/12/25 01:23:20;;;;;;;;;;;12.00;99.90;;;;;;5097244;28;19973;-78
2023/12/25 01:26:07;;;;;;;;;;;11.90;99.90;;;;;;5111682;28;19915;-78
2023/12/25 01:28:53;;;;;;;;;;;11.80;99.90;;;;;;5117097;28;19915;-78
2023/12/25 01:31:40;;;;;;;;;;;11.70;99.90;;;;;;5096364;28;19920;-79
2023/12/25 01:34:25;;;;;;;;;;;11.70;99.90;;;;;;5100187;28;19924;-79
2023/12/25 01:37:11;;;;;;;;;;;11.60;99.90;;;;;;5094479;28;20282;-78
2023/12/25 01:39:57;;;;;;;;;;;11.60;99.90;;;;;;5091591;28;19924;-78
2023/12/25 01:42:44;;;;;;;;;;;11.60;99.90;;;;;;5115493;28;19911;-78
2023/12/25 01:45:30;;;;;;;;;;;11.50;99.90;;;;;;5099993;28;19926;-78
2023/12/25 01:48:16;;;;;;;;;;;11.60;99.90;;;;;;5082184;28;19955;-78
2023/12/25 01:51:03;;;;;;;;;;;11.60;99.90;;;;;;5092042;28;19983;-77
2023/12/25 01:53:50;;;;;;;;;;;11.60;99.90;;;;;;5114348;28;19916;-77
2023/12/25 01:56:36;;;;;;;;;;;11.60;99.90;;;;;;5097839;28;19922;-77
2023/12/25 01:59:22;;;;;;;;;;;11.70;99.90;;;;;;5089914;28;19959;-77
2023/12/25 02:02:08;;;;;;;;;;;11.70;99.90;;;;;;5091403;28;19920;-78
2023/12/25 02:04:54;;;;;;;;;;;11.70;99.90;;;;;;5092750;28;19916;-78
2023/12/25 02:07:41;;;;;;;;;;;11.70;99.90;;;;;;5109310;28;19916;-77
2023/12/25 02:10:27;;;;;;;;;;;11.80;99.90;;;;;;5086053;28;20010;-77
2023/12/25 02:13:13;;;;;;;;;;;11.80;99.90;;;;;;5095992;28;19942;-76
2023/12/25 02:15:59;;;;;;;;;;;11.80;99.90;;;;;;5085694;28;19915;-79
2023/12/25 02:18:45;;;;;;;;;;;11.90;99.90;;;;;;5100393;28;19992;-76
2023/12/25 02:21:31;;;;;;;;;;;11.90;99.90;;;;;;5107840;28;19924;-76
2023/12/25 02:24:19;;;;;;;;;;;11.90;99.90;;;;;;5088098;28;19916;-78
2023/12/25 02:27:05;;;;;;;;;;;11.80;99.90;;;;;;5111581;28;19994;-77
2023/12/25 02:29:50;;;;;;;;;;;11.90;99.90;;;;;;5097773;28;19912;-76
2023/12/25 02:36:01;;;;;;;;;;;11.90;99.90;;;;;;5016304;28;20405;-76
2023/12/25 02:38:47;;;;;;;;;;;11.80;99.90;;;;;;5020831;28;19925;-75
2023/12/25 02:41:33;;;;;;;;;;;11.90;99.90;;;;;;5016517;28;19921;-77
2023/12/25 02:44:19;;;;;;;;;;;11.90;99.90;;;;;;5024590;28;19925;-77
2023/12/25 02:47:04;;;;;;;;;;;11.90;99.90;;;;;;4999674;28;19962;-74
2023/12/25 02:49:50;;;;;;;;;;;11.90;99.90;;;;;;5013805;28;20000;-75
2023/12/25 02:52:36;;;;;;;;;;;11.90;99.90;;;;;;5014125;28;19925;-74
2023/12/25 02:55:22;;;;;;;;;;;11.90;99.90;;;;;;5019821;28;19928;-75
2023/12/25 02:58:08;;;;;;;;;;;11.90;99.90;;;;;;5019920;28;20023;-76
2023/12/25 03:00:54;;;;;;;;;;;11.90;99.90;;;;;;5032393;28;20329;-76
2023/12/25 03:03:40;;;;;;;;;;;11.90;99.90;;;;;;5028144;28;19923;-75
2023/12/25 03:06:26;;;;;;;;;;;11.90;99.90;;;;;;5016561;28;19913;-75
2023/12/25 03:09:12;;;;;;;;;;;11.90;99.90;;;;;;5016655;28;20237;-76
2023/12/25 03:11:58;;;;;;;;;;;11.90;99.90;;;;;;5014388;28;19992;-75
2023/12/25 03:14:44;;;;;;;;;;;11.90;99.90;;;;;;5024432;28;19921;-76
2023/12/25 03:17:29;;;;;;;;;;;11.90;99.90;;;;;;5000257;28;19913;-77
2023/12/25 03:20:15;;;;;;;;;;;11.90;99.90;;;;;;5025437;28;19924;-75
2023/12/25 03:23:01;;;;;;;;;;;11.90;99.90;;;;;;5018966;28;19920;-74
2023/12/25 03:25:47;;;;;;;;;;;11.90;99.90;;;;;;5017309;28;20334;-74
2023/12/25 03:28:33;;;;;;;;;;;11.90;99.90;;;;;;5030637;28;19913;-77
2023/12/25 03:31:19;;;;;;;;;;;11.90;99.90;;;;;;5031063;28;19917;-78
2023/12/25 03:34:05;;;;;;;;;;;11.80;99.90;;;;;;5024330;28;19917;-76
2023/12/25 03:36:51;;;;;;;;;;;11.80;99.90;;;;;;5052872;28;19913;-76
2023/12/25 03:39:37;;;;;;;;;;;11.90;99.90;;;;;;5058484;28;19920;-74
2023/12/25 03:42:23;;;;;;;;;;;11.90;99.90;;;;;;5066056;28;19928;-75
2023/12/25 03:45:09;;;;;;;;;;;11.80;99.90;;;;;;5055667;28;20376;-75
2023/12/25 03:47:55;;;;;;;;;;;11.90;99.90;;;;;;5049663;28;19913;-75
2023/12/25 03:50:44;;;;;;;;;;;11.90;99.90;;;;;;5069509;28;20049;-75
2023/12/25 03:53:30;;;;;;;;;;;11.90;99.90;;;;;;5071770;28;19923;-75
2023/12/25 03:56:17;;;;;;;;;;;11.90;99.90;;;;;;5058737;28;19939;-75
2023/12/25 03:59:03;;;;;;;;;;;11.80;99.90;;;;;;5051863;28;20226;-74
2023/12/25 04:01:48;;;;;;;;;;;11.90;99.90;;;;;;5050883;28;19991;-76
2023/12/25 04:04:35;;;;;;;;;;;11.90;99.90;;;;;;5052002;28;19920;-74
2023/12/25 04:07:21;;;;;;;;;;;11.90;99.90;;;;;;5038316;28;20303;-75
2023/12/25 04:10:07;;;;;;;;;;;11.90;99.90;;;;;;5043107;28;19916;-74
2023/12/25 04:12:52;;;;;;;;;;;11.90;99.90;;;;;;5058685;28;19913;-76
2023/12/25 04:15:38;;;;;;;;;;;11.80;99.90;;;;;;5054361;28;20244;-75
2023/12/25 04:18:24;;;;;;;;;;;11.80;99.90;;;;;;5066820;28;20003;-76
2023/12/25 04:21:19;;;;;;;;;;;11.80;99.90;;;;;;5057268;28;20353;-75
2023/12/25 04:24:05;;;;;;;;;;;11.80;99.90;;;;;;5069875;28;19920;-76
2023/12/25 04:26:51;;;;;;;;;;;11.80;99.90;;;;;;5068676;28;19912;-75
2023/12/25 04:29:37;;;;;;;;;;;11.80;99.90;;;;;;5056889;28;19916;-75
2023/12/25 04:32:23;;;;;;;;;;;11.70;99.90;;;;;;5055912;28;19924;-76
2023/12/25 04:35:08;;;;;;;;;;;11.80;99.90;;;;;;5071347;28;19924;-75
2023/12/25 04:37:54;;;;;;;;;;;11.70;99.90;;;;;;5073809;28;19912;-75
2023/12/25 04:40:40;;;;;;;;;;;11.70;99.90;;;;;;5064559;28;19912;-75
2023/12/25 04:43:26;;;;;;;;;;;11.70;99.90;;;;;;5053357;28;19947;-76
2023/12/25 04:46:12;;;;;;;;;;;11.70;99.90;;;;;;5066345;28;19966;-75
2023/12/25 04:48:58;;;;;;;;;;;11.70;99.90;;;;;;5073993;28;20260;-76
2023/12/25 04:51:44;;;;;;;;;;;11.70;99.90;;;;;;5048375;28;20049;-75
2023/12/25 04:54:30;;;;;;;;;;;11.70;99.90;;;;;;5059309;28;20354;-75
2023/12/25 04:57:16;;;;;;;;;;;11.70;99.90;;;;;;5059810;28;19959;-75
2023/12/25 05:00:03;;;;;;;;;;;11.70;99.90;;;;;;5058670;28;19920;-75
2023/12/25 05:02:49;;;;;;;;;;;11.60;99.90;;;;;;5075349;28;19916;-76
2023/12/25 05:05:34;;;;;;;;;;;11.70;99.90;;;;;;5057205;28;20337;-76
2023/12/25 05:08:20;;;;;;;;;;;11.70;99.90;;;;;;5042036;28;19948;-76
2023/12/25 05:11:07;;;;;;;;;;;11.60;99.90;;;;;;5063915;28;19917;-75
2023/12/25 05:13:53;;;;;;;;;;;11.70;99.90;;;;;;5061507;28;19916;-75
2023/12/25 05:16:39;;;;;;;;;;;11.60;99.90;;;;;;5042066;28;20321;-76
2023/12/25 05:19:25;;;;;;;;;;;11.70;99.90;;;;;;5057408;28;19929;-76
2023/12/25 05:22:12;;;;;;;;;;;11.60;99.90;;;;;;5042260;28;19966;-75
2023/12/25 05:24:58;;;;;;;;;;;11.60;99.90;;;;;;5040033;28;19916;-76
2023/12/25 05:27:44;;;;;;;;;;;11.60;99.90;;;;;;5044373;28;19939;-75
2023/12/25 05:30:29;;;;;;;;;;;11.60;99.90;;;;;;5060488;28;19912;-75
2023/12/25 05:33:15;;;;;;;;;;;11.60;99.90;;;;;;5066091;28;19916;-76
2023/12/25 05:36:01;;;;;;;;;;;11.50;99.90;;;;;;5073880;28;19925;-75
2023/12/25 05:38:47;;;;;;;;;;;11.50;99.90;;;;;;5074406;28;19916;-76
2023/12/25 05:41:33;;;;;;;;;;;11.50;99.90;;;;;;5053447;28;19928;-76
2023/12/25 05:44:19;;;;;;;;;;;11.50;99.90;;;;;;5053674;28;20482;-76
2023/12/25 05:47:05;;;;;;;;;;;11.40;99.90;;;;;;5053019;28;20003;-75
2023/12/25 05:49:51;;;;;;;;;;;11.40;99.90;;;;;;5070452;28;19916;-77
2023/12/25 05:52:37;;;;;;;;;;;11.30;99.90;;;;;;5074421;28;19916;-75
2023/12/25 05:55:25;;;;;;;;;;;11.30;99.90;;;;;;5074654;28;19928;-76
2023/12/25 05:58:11;;;;;;;;;;;11.20;99.90;;;;;;5072856;28;19999;-76
2023/12/25 06:00:57;;;;;;;;;;;11.20;99.90;;;;;;5054268;28;20600;-76
2023/12/25 06:03:43;;;;;;;;;;;11.20;99.90;;;;;;5055499;28;20628;-75
2023/12/25 06:06:29;;;;;;;;;;;11.20;99.90;;;;;;5055223;28;20010;-75
2023/12/25 06:09:14;;;;;;;;;;;11.10;99.90;;;;;;5053776;28;19927;-76
2023/12/25 06:12:00;;;;;;;;;;;11.10;99.90;;;;;;5054080;28;19921;-76
2023/12/25 06:14:46;;;;;;;;;;;11.20;99.90;;;;;;5073169;28;19912;-76
2023/12/25 06:17:32;;;;;;;;;;;11.10;99.90;;;;;;5059119;28;19924;-75
2023/12/25 06:20:18;;;;;;;;;;;11.10;99.90;;;;;;5057628;28;19924;-76
2023/12/25 06:23:04;;;;;;;;;;;11.00;99.90;;;;;;5073436;28;19919;-75
2023/12/25 06:25:50;;;;;;;;;;;11.00;99.90;;;;;;5073366;28;19919;-75
2023/12/25 06:28:36;;;;;;;;;;;11.00;99.90;;;;;;5073679;28;19921;-76
2023/12/25 06:31:22;;;;;;;;;;;10.90;99.90;;;;;;5059669;28;19917;-75
2023/12/25 06:34:08;;;;;;;;;;;10.90;99.90;;;;;;5052749;28;19927;-75
2023/12/25 06:36:53;;;;;;;;;;;10.90;99.90;;;;;;5072435;28;19917;-75
2023/12/25 06:39:39;;;;;;;;;;;10.80;99.90;;;;;;5057172;28;20070;-75
2023/12/25 06:42:26;;;;;;;;;;;10.80;99.90;;;;;;5055863;28;19912;-75
2023/12/25 06:45:12;;;;;;;;;;;10.80;99.90;;;;;;5071528;28;20354;-75
2023/12/25 06:47:58;;;;;;;;;;;10.80;99.90;;;;;;5071154;28;19942;-75
2023/12/25 06:50:44;;;;;;;;;;;10.70;99.90;;;;;;5053611;28;19943;-75
2023/12/25 06:53:30;;;;;;;;;;;10.70;99.90;;;;;;5048335;28;20567;-75
2023/12/25 06:56:16;;;;;;;;;;;10.70;99.90;;;;;;5054304;28;19955;-75
2023/12/25 06:59:01;;;;;;;;;;;10.70;99.90;;;;;;5053165;28;19924;-75
2023/12/25 07:01:47;;;;;;;;;;;10.70;99.90;;;;;;5060759;28;19912;-75
2023/12/25 07:04:34;;;;;;;;;;;10.70;99.90;;;;;;5064489;28;19920;-75
2023/12/25 07:07:19;;;;;;;;;;;10.70;99.90;;;;;;5071189;28;19913;-75
2023/12/25 07:10:06;;;;;;;;;;;10.70;99.90;;;;;;5068254;28;19971;-75
2023/12/25 07:12:51;;;;;;;;;;;10.70;99.90;;;;;;5070305;28;19916;-75
2023/12/25 07:15:38;;;;;;;;;;;10.60;99.90;;;;;;5052338;28;19913;-75
2023/12/25 07:18:24;;;;;;;;;;;10.60;99.90;;;;;;5052416;28;19925;-75
2023/12/25 07:21:10;;;;;;;;;;;10.60;99.90;;;;;;5060527;28;19913;-75
2023/12/25 07:23:56;;;;;;;;;;;10.60;99.90;;;;;;5061726;28;19943;-75
2023/12/25 07:26:42;;;;;;;;;;;10.60;99.90;;;;;;5073227;28;19969;-75
2023/12/25 07:29:28;;;;;;;;;;;10.60;99.90;;;;;;5059548;28;19921;-75
2023/12/25 07:32:17;;;;;;;;;;;10.60;99.90;;;;;;5055667;28;19995;-75
2023/12/25 07:35:03;;;;;;;;;;;10.60;99.90;;;;;;5053095;28;19920;-75
2023/12/25 07:37:49;;;;;;;;;;;10.60;99.90;;;;;;5070797;28;19920;-75
2023/12/25 07:40:35;;;;;;;;;;;10.60;99.90;;;;;;5054649;28;19962;-75
2023/12/25 07:43:22;;;;;;;;;;;10.70;99.90;;;;;;5039879;28;20066;-75
2023/12/25 07:46:08;;;;;;;;;;;10.60;99.90;;;;;;5053350;28;19916;-75
2023/12/25 07:48:54;;;;;;;;;;;10.60;99.90;;;;;;5050293;28;20277;-75
2023/12/25 07:51:40;;;;;;;;;;;10.70;99.90;;;;;;5054460;28;20320;-75
2023/12/25 07:54:26;;;;;;;;;;;10.70;99.90;;;;;;5038911;28;19945;-75
2023/12/25 07:57:12;;;;;;;;;;;10.70;99.90;;;;;;5058688;28;19912;-75
2023/12/25 07:59:58;;;;;;;;;;;10.70;99.90;;;;;;5058153;28;19956;-75
2023/12/25 08:02:44;;;;;;;;;;;10.70;99.90;;;;;;5058042;28;19913;-75
2023/12/25 08:05:30;;;;;;;;;;;10.70;99.90;;;;;;5038968;28;19991;-75
2023/12/25 08:08:17;;;;;;;;;;;10.70;99.90;;;;;;5051604;28;19913;-75
2023/12/25 08:11:03;;;;;;;;;;;10.60;99.90;;;;;;5063752;28;19912;-75
2023/12/25 08:13:49;;;;;;;;;;;10.60;99.90;;;;;;5075896;28;19920;-75
2023/12/25 08:16:36;;;;;;;;;;;10.70;99.90;;;;;;5055869;28;19920;-75
2023/12/25 08:19:22;;;;;;;;;;;10.60;99.90;;;;;;5041933;28;19951;-75
2023/12/25 08:22:07;;;;;;;;;;;10.70;99.90;;;;;;5060999;28;19916;-75
2023/12/25 08:24:54;;;;;;;;;;;10.70;99.90;;;;;;5076282;28;20490;-75
2023/12/25 08:27:40;;;;;;;;;;;10.60;99.90;;;;;;5065549;28;19924;-77
2023/12/25 08:30:26;;;;;;;;;;;10.60;99.90;;;;;;5075114;28;19928;-78
2023/12/25 08:33:11;;;;;;;;;;;10.60;99.90;;;;;;5062739;28;20206;-78
2023/12/25 08:35:57;;;;;;;;;;;10.70;99.90;;;;;;5076369;28;20667;-78
2023/12/25 08:38:43;;;;;;;;;;;10.70;99.90;;;;;;5063109;28;19970;-78
2023/12/25 08:41:29;;;;;;;;;;;10.60;99.90;;;;;;5075375;28;19912;-76
2023/12/25 08:44:15;;;;;;;;;;;10.60;99.90;;;;;;5075189;28;19940;-75
2023/12/25 08:47:03;;;;;;;;;;;10.60;99.90;;;;;;5062375;28;20306;-77
2023/12/25 08:49:49;;;;;;;;;;;10.60;99.90;;;;;;5061045;28;19916;-76
2023/12/25 08:52:35;;;;;;;;;;;10.60;99.90;;;;;;5058739;28;19920;-75
2023/12/25 08:55:21;;;;;;;;;;;10.60;99.90;;;;;;5075030;28;20427;-76
2023/12/25 08:58:07;;;;;;;;;;;10.70;99.90;;;;;;5074579;28;19947;-76
2023/12/25 09:00:54;;;;;;;;;;;10.60;99.90;;;;;;5075043;28;19916;-76
2023/12/25 09:03:39;;;;;;;;;;;10.60;99.90;;;;;;5069202;28;20587;-76
2023/12/25 09:06:25;;;;;;;;;;;10.60;99.90;;;;;;5060699;28;19916;-76
2023/12/25 09:09:11;;;;;;;;;;;10.70;99.90;;;;;;5060132;28;19927;-77
2023/12/25 09:11:57;;;;;;;;;;;10.60;99.90;;;;;;5074097;28;19920;-76
2023/12/25 09:14:44;;;;;;;;;;;10.70;99.90;;;;;;5056044;28;19917;-76
2023/12/25 09:17:30;;;;;;;;;;;10.70;99.90;;;;;;5074187;28;19918;-78
2023/12/25 09:20:16;;;;;;;;;;;10.70;99.90;;;;;;5075832;28;19924;-76
2023/12/25 09:23:03;;;;;;;;;;;10.70;99.90;;;;;;5073454;28;20336;-76
2023/12/25 09:25:49;;;;;;;;;;;10.70;99.90;;;;;;5074900;28;19920;-77
2023/12/25 09:28:34;;;;;;;;;;;10.70;99.90;;;;;;5048606;28;19923;-77
2023/12/25 09:31:20;;;;;;;;;;;10.70;99.90;;;;;;5053990;28;19928;-76
2023/12/25 09:34:06;;;;;;;;;;;10.70;99.90;;;;;;5057544;28;19916;-76
2023/12/25 09:36:55;;;;;;;;;;;10.80;99.90;;;;;;5060398;28;19917;-75
2023/12/25 09:39:43;;;;;;;;;;;10.80;99.90;;;;;;5045506;28;20284;-76
2023/12/25 09:42:29;;;;;;;;;;;10.80;99.90;;;;;;5042224;28;19953;-76
2023/12/25 09:45:14;;;;;;;;;;;10.80;99.90;;;;;;5072958;28;19916;-76
2023/12/25 09:48:00;;;;;;;;;;;10.90;99.90;;;;;;5072827;28;19917;-76
2023/12/25 09:50:46;;;;;;;;;;;10.90;99.90;;;;;;5073355;28;19912;-76
2023/12/25 09:53:32;;;;;;;;;;;10.90;99.90;;;;;;5072655;28;19924;-76
2023/12/25 09:56:19;;;;;;;;;;;10.90;99.90;;;;;;5072207;28;20378;-75
2023/12/25 09:59:05;;;;;;;;;;;10.90;99.90;;;;;;5051577;28;20000;-76
2023/12/25 10:01:51;;;;;;;;;;;11.00;99.90;;;;;;5040215;28;19979;-76
2023/12/25 10:04:37;;;;;;;;;;;11.00;99.90;;;;;;5054027;28;19995;-77
2023/12/25 10:07:23;;;;;;;;;;;11.00;99.90;;;;;;5050369;28;19917;-76
2023/12/25 10:10:08;;;;;;;;;;;11.00;99.90;;;;;;5058449;28;19917;-76
2023/12/25 10:12:55;;;;;;;;;;;11.10;99.90;;;;;;5053284;28;19935;-76
2023/12/25 10:15:41;;;;;;;;;;;11.20;99.90;;;;;;5053377;28;19913;-76
2023/12/25 10:18:27;;;;;;;;;;;11.20;99.90;;;;;;5053028;28;19960;-76
2023/12/25 10:21:13;;;;;;;;;;;11.20;99.90;;;;;;5053262;28;20435;-76
2023/12/25 10:23:59;;;;;;;;;;;11.20;99.90;;;;;;5067708;28;19920;-76
2023/12/25 10:26:45;;;;;;;;;;;11.20;99.90;;;;;;5072580;28;20031;-76
2023/12/25 10:29:35;;;;;;;;;;;11.20;99.90;;;;;;5072858;28;19916;-75
2023/12/25 10:32:21;;;;;;;;;;;11.20;99.90;;;;;;5072336;28;20003;-76
2023/12/25 10:35:11;;;;;;;;;;;11.20;99.90;;;;;;5072721;28;19924;-75
2023/12/25 10:37:57;;;;;;;;;;;11.30;99.90;;;;;;5062035;28;19916;-75
2023/12/25 10:40:43;;;;;;;;;;;11.30;99.90;;;;;;5060027;28;19958;-75
2023/12/25 10:43:28;;;;;;;;;;;11.30;99.90;;;;;;5055639;28;19932;-75
2023/12/25 10:46:14;;;;;;;;;;;11.20;99.90;;;;;;5058237;28;19979;-75
2023/12/25 10:49:01;;;;;;;;;;;11.30;99.90;;;;;;5052700;28;19923;-75
2023/12/25 10:51:46;;;;;;;;;;;11.20;99.90;;;;;;5056199;28;19999;-77
2023/12/25 10:54:33;;;;;;;;;;;11.30;99.90;;;;;;5072596;28;20619;-77
2023/12/25 10:57:21;;;;;;;;;;;11.30;99.90;;;;;;5073858;28;19966;-77
2023/12/25 11:00:10;;;;;;;;;;;11.30;99.90;;;;;;5047672;28;20314;-77
2023/12/25 11:02:57;;;;;;;;;;;11.50;99.90;;;;;;5053172;28;19975;-77
2023/12/25 11:05:43;;;;;;;;;;;11.60;99.90;;;;;;5064664;28;20348;-77
2023/12/25 11:08:29;;;;;;;;;;;11.60;99.90;;;;;;5057409;28;19921;-77
2023/12/25 11:11:16;;;;;;;;;;;11.80;99.90;;;;;;5067723;28;20274;-75
2023/12/25 11:14:01;;;;;;;;;;;11.90;99.90;;;;;;5055634;28;19917;-75
2023/12/25 11:16:47;;;;;;;;;;;12.20;99.90;;;;;;5051827;28;19916;-75
2023/12/25 11:19:33;;;;;;;;;;;12.80;99.90;;;;;;5050408;28;19927;-75
2023/12/25 11:22:29;;;;;;;;;;;12.70;99.90;;;;;;5048593;28;19917;-77
2023/12/25 11:25:15;;;;;;;;;;;12.30;99.90;;;;;;5052055;28;19913;-77
2023/12/25 11:28:02;;;;;;;;;;;12.20;99.90;;;;;;5068890;28;19916;-77
2023/12/25 11:30:48;;;;;;;;;;;12.20;99.90;;;;;;5071852;28;19947;-76
2023/12/25 11:33:43;;;;;;;;;;;12.10;99.90;;;;;;5058414;28;19923;-78
2023/12/25 11:36:29;;;;;;;;;;;12.20;99.90;;;;;;5038228;28;19932;-77
2023/12/25 11:39:15;;;;;;;;;;;12.30;99.90;;;;;;5072693;28;20344;-77
2023/12/25 11:42:03;;;;;;;;;;;12.20;99.90;;;;;;5053038;28;19916;-77
2023/12/25 11:44:49;;;;;;;;;;;12.30;99.90;;;;;;5067707;28;19955;-78
2023/12/25 11:47:49;;;;;;;;;;;12.10;99.90;;;;;;5063100;28;19916;-75
2023/12/25 11:50:38;;;;;;;;;;;12.00;99.90;;;;;;5059941;28;19924;-75
2023/12/25 11:53:41;;;;;;;;;;;11.80;99.90;;;;;;5048637;28;19917;-74
2023/12/25 11:56:27;;;;;;;;;;;11.70;99.90;;;;;;5072369;28;19927;-74
2023/12/25 11:59:13;;;;;;;;;;;11.70;99.90;;;;;;5063942;28;20406;-74
2023/12/25 12:01:59;;;;;;;;;;;11.70;99.90;;;;;;5068206;28;20394;-74
2023/12/25 12:04:46;;;;;;;;;;;11.60;99.90;;;;;;5042627;28;19916;-76
2023/12/25 12:07:32;;;;;;;;;;;11.60;99.90;;;;;;5069029;28;19927;-76
2023/12/25 12:10:18;;;;;;;;;;;11.60;99.90;;;;;;5075129;28;19999;-76
2023/12/25 12:13:04;;;;;;;;;;;11.50;99.90;;;;;;5060460;28;19912;-76
2023/12/25 12:15:50;;;;;;;;;;;11.50;99.90;;;;;;5076622;28;19923;-73
2023/12/25 12:18:37;;;;;;;;;;;11.50;99.90;;;;;;5063056;28;19920;-76
2023/12/25 12:21:23;;;;;;;;;;;11.50;99.90;;;;;;5074891;28;19916;-74
2023/12/25 12:24:22;;;;;;;;;;;11.50;99.90;;;;;;5063219;28;19956;-76
2023/12/25 12:27:08;;;;;;;;;;;11.50;99.90;;;;;;5061824;28;20659;-76
2023/12/25 12:29:54;;;;;;;;;;;11.50;99.90;;;;;;5061447;28;19913;-76
2023/12/25 12:32:41;;;;;;;;;;;11.50;99.90;;;;;;5053253;28;19947;-76
2023/12/25 12:35:28;;;;;;;;;;;11.40;99.90;;;;;;5046181;28;20062;-76
2023/12/25 12:38:14;;;;;;;;;;;11.40;99.90;;;;;;5062812;28;20007;-76
2023/12/25 12:41:00;;;;;;;;;;;11.40;99.90;;;;;;5076275;28;19916;-76
2023/12/25 12:43:46;;;;;;;;;;;11.40;99.90;;;;;;5053969;28;20717;-76
2023/12/25 12:46:32;;;;;;;;;;;11.40;99.90;;;;;;5062720;28;19917;-76
2023/12/25 12:49:21;;;;;;;;;;;11.30;99.90;;;;;;5059883;28;20005;-76
2023/12/25 12:52:07;;;;;;;;;;;11.40;99.90;;;;;;5043094;28;20273;-76
2023/12/25 12:54:52;;;;;;;;;;;11.30;99.90;;;;;;5070518;28;19912;-76
2023/12/25 12:57:39;;;;;;;;;;;11.30;99.90;;;;;;5059206;28;19931;-76
2023/12/25 13:00:25;;;;;;;;;;;11.30;99.90;;;;;;5075850;28;20378;-76
2023/12/25 13:03:11;;;;;;;;;;;11.40;99.90;;;;;;5061626;28;19927;-76
2023/12/25 13:05:57;;;;;;;;;;;11.40;99.90;;;;;;5074870;28;19916;-76
2023/12/25 13:08:42;;;;;;;;;;;11.40;99.90;;;;;;5074796;28;19927;-76
2023/12/25 13:11:29;;;;;;;;;;;11.30;99.90;;;;;;5059086;28;19928;-76
2023/12/25 13:14:15;;;;;;;;;;;11.30;99.90;;;;;;5041437;28;19923;-76
2023/12/25 13:17:01;;;;;;;;;;;11.20;99.90;;;;;;5072756;28;19946;-76
2023/12/25 13:19:47;;;;;;;;;;;11.20;99.90;;;;;;5041544;28;19927;-76
2023/12/25 13:22:33;;;;;;;;;;;11.20;99.90;;;;;;5056005;28;20009;-77
2023/12/25 13:25:18;;;;;;;;;;;11.20;99.90;;;;;;5074674;28;19927;-76
2023/12/25 13:28:04;;;;;;;;;;;11.20;99.90;;;;;;5061562;28;19938;-76
2023/12/25 13:30:53;;;;;;;;;;;11.20;99.90;;;;;;5074701;28;19916;-76
2023/12/25 13:33:42;;;;;;;;;;;11.20;99.90;;;;;;5068160;28;19916;-76
2023/12/25 13:36:28;;;;;;;;;;;11.20;99.90;;;;;;5066827;28;19928;-76
2023/12/25 13:39:14;;;;;;;;;;;11.10;99.90;;;;;;5053542;28;20241;-79
2023/12/25 13:42:00;;;;;;;;;;;11.10;99.90;;;;;;5052695;28;19942;-78
2023/12/25 13:44:46;;;;;;;;;;;11.10;99.90;;;;;;5071253;28;19929;-78
2023/12/25 13:47:33;;;;;;;;;;;11.10;99.90;;;;;;5073798;28;19916;-78
2023/12/25 13:50:18;;;;;;;;;;;11.10;99.90;;;;;;5057756;28;20337;-78
2023/12/25 13:53:05;;;;;;;;;;;11.00;99.90;;;;;;5074713;28;19922;-78
2023/12/25 13:55:51;;;;;;;;;;;11.00;99.90;;;;;;5059942;28;19931;-78
2023/12/25 13:58:37;;;;;;;;;;;11.00;99.90;;;;;;5073406;28;19916;-78
2023/12/25 14:01:23;;;;;;;;;;;11.00;99.90;;;;;;5073413;28;19976;-79
2023/12/25 14:04:09;;;;;;;;;;;11.10;99.90;;;;;;5071739;28;20493;-80
2023/12/25 14:06:55;;;;;;;;;;;11.00;99.90;;;;;;5074021;28;19924;-77
2023/12/25 14:09:44;;;;;;;;;;;11.00;99.90;;;;;;5059986;28;20247;-81
2023/12/25 14:12:30;;;;;;;;;;;11.00;99.90;;;;;;5054654;28;20597;-78
2023/12/25 14:15:16;;;;;;;;;;;11.00;99.90;;;;;;5054779;28;19917;-77
2023/12/25 14:18:03;;;;;;;;;;;11.00;99.90;;;;;;5066156;28;19928;-77
2023/12/25 14:20:50;;;;;;;;;;;10.90;99.90;;;;;;5074101;28;19928;-78
2023/12/25 14:23:36;;;;;;;;;;;11.00;99.90;;;;;;5054371;28;19916;-79
2023/12/25 14:26:22;;;;;;;;;;;10.90;99.90;;;;;;5069814;28;20448;-77
2023/12/25 14:29:08;;;;;;;;;;;10.90;99.90;;;;;;5073004;28;19917;-78
2023/12/25 14:31:53;;;;;;;;;;;10.90;99.90;;;;;;5067915;28;19917;-78
2023/12/25 14:34:39;;;;;;;;;;;10.90;99.90;;;;;;5043669;28;19932;-77
2023/12/25 14:37:25;;;;;;;;;;;10.90;99.90;;;;;;5053495;28;19956;-78
2023/12/25 14:40:11;;;;;;;;;;;10.90;99.90;;;;;;5054642;28;20244;-78
2023/12/25 14:42:57;;;;;;;;;;;10.90;99.90;;;;;;5047314;28;19917;-78
2023/12/25 14:45:43;;;;;;;;;;;10.80;99.90;;;;;;5066870;28;20268;-78
2023/12/25 14:48:29;;;;;;;;;;;10.80;99.90;;;;;;5067672;28;19960;-77
2023/12/25 14:51:15;;;;;;;;;;;10.80;99.90;;;;;;5060164;28;20268;-77
2023/12/25 14:54:01;;;;;;;;;;;10.80;99.90;;;;;;5054347;28;19919;-78
2023/12/25 14:56:47;;;;;;;;;;;10.80;99.90;;;;;;5068075;28;19964;-80
2023/12/25 14:59:33;;;;;;;;;;;10.70;99.90;;;;;;5051540;28;20294;-78
2023/12/25 15:02:19;;;;;;;;;;;10.70;99.90;;;;;;5051349;28;19920;-78
2023/12/25 15:05:05;;;;;;;;;;;10.70;99.90;;;;;;5054109;28;19916;-78
2023/12/25 15:07:52;;;;;;;;;;;10.60;99.90;;;;;;5047696;28;19916;-77
2023/12/25 15:10:39;;;;;;;;;;;10.60;99.90;;;;;;5048354;28;19917;-78
2023/12/25 15:13:25;;;;;;;;;;;10.60;99.90;;;;;;5038991;28;20022;-78
2023/12/25 15:16:11;;;;;;;;;;;10.50;99.90;;;;;;5067970;28;19928;-79
2023/12/25 15:18:57;;;;;;;;;;;10.50;99.90;;;;;;5064958;28;19985;-78
2023/12/25 15:21:43;;;;;;;;;;;10.50;99.90;;;;;;5061805;28;19928;-77
2023/12/25 15:24:28;;;;;;;;;;;10.40;99.90;;;;;;5051944;28;19927;-78
2023/12/25 15:27:14;;;;;;;;;;;10.50;99.90;;;;;;5050647;28;19924;-78
2023/12/25 15:30:00;;;;;;;;;;;10.40;99.90;;;;;;5046698;28;19916;-77
2023/12/25 15:32:46;;;;;;;;;;;10.40;99.90;;;;;;5056148;28;20252;-78
2023/12/25 15:35:32;;;;;;;;;;;10.40;99.90;;;;;;5053991;28;20384;-78
2023/12/25 15:38:18;;;;;;;;;;;10.40;99.90;;;;;;5058355;28;19912;-77
2023/12/25 15:41:05;;;;;;;;;;;10.30;99.90;;;;;;5065436;28;19992;-78
2023/12/25 15:43:51;;;;;;;;;;;10.30;99.90;;;;;;5035662;28;20002;-77
2023/12/25 15:46:40;;;;;;;;;;;10.30;99.90;;;;;;5059833;28;20742;-77
2023/12/25 15:49:26;;;;;;;;;;;10.20;99.90;;;;;;5047041;28;20751;-77
2023/12/25 15:52:14;;;;;;;;;;;10.20;99.90;;;;;;5069031;28;19962;-77
2023/12/25 15:55:00;;;;;;;;;;;10.30;99.90;;;;;;5036881;28;19936;-76
2023/12/25 15:57:47;;;;;;;;;;;10.30;99.90;;;;;;5040930;28;19924;-77
2023/12/25 16:00:34;;;;;;;;;;;10.20;99.90;;;;;;5056544;28;19931;-77
2023/12/25 16:03:19;;;;;;;;;;;10.20;99.90;;;;;;5069026;28;19912;-77
2023/12/25 16:06:06;;;;;;;;;;;10.20;99.90;;;;;;5058139;28;19919;-77
2023/12/25 16:08:53;;;;;;;;;;;10.20;99.90;;;;;;5058425;28;20279;-77
2023/12/25 16:11:39;;;;;;;;;;;10.20;99.90;;;;;;5071237;28;19916;-77